sensor_id;sensor_type;location;lat;lon;timestamp;pressure;altitude;pressure_sealevel;temperature;humidity
60656;BME280;46477;53.616;10.064;2022-08-19T00:00:06;100941.50;;;22.48;61.96
60656;BME280;46477;53.616;10.064;2022-08-19T00:02:33;100933.72;;;22.52;62.10
60656;BME280;46477;53.616;10.064;2022-08-19T00:04:58;100924.03;;;22.56;62.01
60656;BME280;46477;53.616;10.064;2022-08-19T00:07:24;100920.25;;;22.57;62.15
60656;BME280;46477;53.616;10.064;2022-08-19T00:09:49;100912.38;;;22.55;61.90
60656;BME280;46477;53.616;10.064;2022-08-19T00:12:14;100907.56;;;22.57;61.94
60656;BME280;46477;53.616;10.064;2022-08-19T00:14:40;100899.91;;;22.54;62.24
60656;BME280;46477;53.616;10.064;2022-08-19T00:17:07;100890.69;;;22.55;62.19
60656;BME280;46477;53.616;10.064;2022-08-19T00:19:34;100893.94;;;22.52;62.36
60656;BME280;46477;53.616;10.064;2022-08-19T00:22:00;100900.88;;;22.48;62.61
60656;BME280;46477;53.616;10.064;2022-08-19T00:24:28;100902.53;;;22.49;62.66
60656;BME280;46477;53.616;10.064;2022-08-19T00:26:54;100912.03;;;22.52;62.59
60656;BME280;46477;53.616;10.064;2022-08-19T00:29:23;100907.72;;;22.51;62.69
60656;BME280;46477;53.616;10.064;2022-08-19T00:31:50;100899.25;;;22.47;62.67
60656;BME280;46477;53.616;10.064;2022-08-19T00:34:18;100894.66;;;22.48;62.83
60656;BME280;46477;53.616;10.064;2022-08-19T00:36:44;100902.53;;;22.49;62.75
60656;BME280;46477;53.616;10.064;2022-08-19T00:39:11;100907.47;;;22.52;62.67
60656;BME280;46477;53.616;10.064;2022-08-19T00:41:36;100898.78;;;22.50;62.69
60656;BME280;46477;53.616;10.064;2022-08-19T00:44:04;100894.97;;;22.51;62.65
60656;BME280;46477;53.616;10.064;2022-08-19T00:46:31;100896.31;;;22.49;62.58
60656;BME280;46477;53.616;10.064;2022-08-19T00:48:59;100892.75;;;22.48;62.73
60656;BME280;46477;53.616;10.064;2022-08-19T00:51:27;100888.44;;;22.47;62.72
60656;BME280;46477;53.616;10.064;2022-08-19T00:53:55;100891.72;;;22.49;62.63
60656;BME280;46477;53.616;10.064;2022-08-19T00:56:22;100888.44;;;22.47;62.63
60656;BME280;46477;53.616;10.064;2022-08-19T00:58:48;100881.03;;;22.42;62.48
60656;BME280;46477;53.616;10.064;2022-08-19T01:01:14;100879.41;;;22.41;62.57
60656;BME280;46477;53.616;10.064;2022-08-19T01:03:39;100880.72;;;22.39;62.91
60656;BME280;46477;53.616;10.064;2022-08-19T01:06:05;100881.53;;;22.39;62.85
60656;BME280;46477;53.616;10.064;2022-08-19T01:08:31;100881.78;;;22.38;62.89
60656;BME280;46477;53.616;10.064;2022-08-19T01:10:58;100880.72;;;22.39;62.93
60656;BME280;46477;53.616;10.064;2022-08-19T01:13:28;100889.91;;;22.38;63.26
60656;BME280;46477;53.616;10.064;2022-08-19T01:16:06;100892.88;;;22.36;63.20
60656;BME280;46477;53.616;10.064;2022-08-19T01:18:33;100884.31;;;22.27;63.38
60656;BME280;46477;53.616;10.064;2022-08-19T01:21:13;100883.16;;;22.23;63.78
60656;BME280;46477;53.616;10.064;2022-08-19T01:23:42;100885.28;;;22.21;63.73
60656;BME280;46477;53.616;10.064;2022-08-19T01:26:11;100876.09;;;22.22;63.70
60656;BME280;46477;53.616;10.064;2022-08-19T01:28:37;100879.88;;;22.21;63.72
60656;BME280;46477;53.616;10.064;2022-08-19T01:31:04;100873.63;;;22.21;63.49
60656;BME280;46477;53.616;10.064;2022-08-19T01:33:29;100870.66;;;22.22;63.45
60656;BME280;46477;53.616;10.064;2022-08-19T01:36:30;100875.84;;;22.24;63.90
60656;BME280;46477;53.616;10.064;2022-08-19T01:38:57;100871.34;;;22.13;64.43
60656;BME280;46477;53.616;10.064;2022-08-19T01:41:24;100858.53;;;22.08;64.37
60656;BME280;46477;53.616;10.064;2022-08-19T01:43:51;100860.91;;;22.04;64.66
60656;BME280;46477;53.616;10.064;2022-08-19T01:46:17;100860.56;;;22.01;64.69
60656;BME280;46477;53.616;10.064;2022-08-19T01:48:43;100859.25;;;22.03;64.52
60656;BME280;46477;53.616;10.064;2022-08-19T01:51:10;100860.56;;;22.01;64.67
60656;BME280;46477;53.616;10.064;2022-08-19T01:53:36;100851.47;;;22.07;64.63
60656;BME280;46477;53.616;10.064;2022-08-19T01:56:03;100851.47;;;22.07;64.55
60656;BME280;46477;53.616;10.064;2022-08-19T01:58:32;100850.97;;;22.10;64.38
60656;BME280;46477;53.616;10.064;2022-08-19T02:01:01;100849.09;;;22.11;64.74
60656;BME280;46477;53.616;10.064;2022-08-19T02:03:27;100849.25;;;22.04;65.07
60656;BME280;46477;53.616;10.064;2022-08-19T02:06:00;100856.22;;;22.00;65.22
60656;BME280;46477;53.616;10.064;2022-08-19T02:08:26;100847.28;;;21.99;65.54
60656;BME280;46477;53.616;10.064;2022-08-19T02:10:52;100849.97;;;21.99;65.31
60656;BME280;46477;53.616;10.064;2022-08-19T02:13:17;100853.50;;;22.00;65.35
60656;BME280;46477;53.616;10.064;2022-08-19T02:15:43;100850.78;;;22.00;65.45
60656;BME280;46477;53.616;10.064;2022-08-19T02:18:08;100851.53;;;21.95;65.47
60656;BME280;46477;53.616;10.064;2022-08-19T02:20:34;100842.63;;;21.95;65.79
60656;BME280;46477;53.616;10.064;2022-08-19T02:23:00;100835.53;;;21.94;65.69
60656;BME280;46477;53.616;10.064;2022-08-19T02:25:26;100822.84;;;21.94;65.92
60656;BME280;46477;53.616;10.064;2022-08-19T02:27:52;100819.13;;;21.83;65.85
60656;BME280;46477;53.616;10.064;2022-08-19T02:30:19;100816.59;;;21.77;65.84
60656;BME280;46477;53.616;10.064;2022-08-19T02:32:44;100820.59;;;21.74;66.30
60656;BME280;46477;53.616;10.064;2022-08-19T02:35:11;100817.66;;;21.76;66.46
60656;BME280;46477;53.616;10.064;2022-08-19T02:37:37;100829.63;;;21.80;66.25
60656;BME280;46477;53.616;10.064;2022-08-19T02:40:21;100842.53;;;21.89;65.34
60656;BME280;46477;53.616;10.064;2022-08-19T02:42:46;100850.97;;;21.93;65.63
60656;BME280;46477;53.616;10.064;2022-08-19T02:45:13;100845.91;;;21.97;65.64
60656;BME280;46477;53.616;10.064;2022-08-19T02:47:39;100845.56;;;21.93;65.94
60656;BME280;46477;53.616;10.064;2022-08-19T02:50:05;100836.03;;;21.90;65.79
60656;BME280;46477;53.616;10.064;2022-08-19T02:52:32;100828.66;;;21.86;66.46
60656;BME280;46477;53.616;10.064;2022-08-19T02:54:58;100828.09;;;21.84;66.25
60656;BME280;46477;53.616;10.064;2022-08-19T02:57:24;100832.19;;;21.86;66.14
60656;BME280;46477;53.616;10.064;2022-08-19T02:59:49;100829.47;;;21.86;65.99
60656;BME280;46477;53.616;10.064;2022-08-19T03:02:15;100835.69;;;21.87;66.19
60656;BME280;46477;53.616;10.064;2022-08-19T03:04:41;100834.88;;;21.86;66.18
60656;BME280;46477;53.616;10.064;2022-08-19T03:07:07;100838.00;;;21.95;65.96
60656;BME280;46477;53.616;10.064;2022-08-19T03:09:36;100838.81;;;21.96;65.57
60656;BME280;46477;53.616;10.064;2022-08-19T03:12:03;100845.06;;;21.96;65.88
60656;BME280;46477;53.616;10.064;2022-08-19T03:14:31;100839.31;;;21.93;65.93
60656;BME280;46477;53.616;10.064;2022-08-19T03:16:56;100841.69;;;21.89;66.10
60656;BME280;46477;53.616;10.064;2022-08-19T03:19:23;100832.41;;;21.85;65.96
60656;BME280;46477;53.616;10.064;2022-08-19T03:21:48;100835.38;;;21.83;66.29
60656;BME280;46477;53.616;10.064;2022-08-19T03:24:16;100839.16;;;21.82;66.27
60656;BME280;46477;53.616;10.064;2022-08-19T03:26:45;100832.31;;;21.80;66.19
60656;BME280;46477;53.616;10.064;2022-08-19T03:29:12;100839.16;;;21.82;65.92
60656;BME280;46477;53.616;10.064;2022-08-19T03:31:39;100831.19;;;21.76;66.20
60656;BME280;46477;53.616;10.064;2022-08-19T03:34:05;100841.75;;;21.77;66.27
60656;BME280;46477;53.616;10.064;2022-08-19T03:36:30;100844.00;;;21.80;66.05
60656;BME280;46477;53.616;10.064;2022-08-19T03:38:59;100839.38;;;21.81;65.97
60656;BME280;46477;53.616;10.064;2022-08-19T03:41:29;100843.16;;;21.80;66.25
60656;BME280;46477;53.616;10.064;2022-08-19T03:43:55;100845.03;;;21.79;66.10
60656;BME280;46477;53.616;10.064;2022-08-19T03:46:26;100840.09;;;21.76;66.09
60656;BME280;46477;53.616;10.064;2022-08-19T03:48:54;100853.53;;;21.71;66.10
60656;BME280;46477;53.616;10.064;2022-08-19T03:51:25;100852.91;;;21.81;65.89
60656;BME280;46477;53.616;10.064;2022-08-19T03:53:52;100854.94;;;21.74;66.04
60656;BME280;46477;53.616;10.064;2022-08-19T03:56:18;100864.13;;;21.73;66.04
60656;BME280;46477;53.616;10.064;2022-08-19T03:58:44;100866.00;;;21.72;66.22
60656;BME280;46477;53.616;10.064;2022-08-19T04:01:18;100875.19;;;21.71;65.80
60656;BME280;46477;53.616;10.064;2022-08-19T04:03:44;100877.53;;;21.67;65.89
60656;BME280;46477;53.616;10.064;2022-08-19T04:06:22;100886.00;;;21.71;66.15
60656;BME280;46477;53.616;10.064;2022-08-19T04:08:49;100879.28;;;21.74;65.80
60656;BME280;46477;53.616;10.064;2022-08-19T04:11:18;100895.88;;;21.77;66.03
60656;BME280;46477;53.616;10.064;2022-08-19T04:13:46;100890.47;;;21.77;65.54
60656;BME280;46477;53.616;10.064;2022-08-19T04:16:12;100885.72;;;21.84;65.75
60656;BME280;46477;53.616;10.064;2022-08-19T04:18:39;100883.25;;;21.83;66.06
60656;BME280;46477;53.616;10.064;2022-08-19T04:21:07;100888.66;;;21.83;66.13
60656;BME280;46477;53.616;10.064;2022-08-19T04:23:33;100906.03;;;21.87;64.45
60656;BME280;46477;53.616;10.064;2022-08-19T04:25:59;100903.91;;;21.89;65.45
60656;BME280;46477;53.616;10.064;2022-08-19T04:28:25;100905.09;;;21.93;65.54
60656;BME280;46477;53.616;10.064;2022-08-19T04:30:52;100903.09;;;21.88;65.70
60656;BME280;46477;53.616;10.064;2022-08-19T04:33:21;100898.25;;;21.90;65.61
60656;BME280;46477;53.616;10.064;2022-08-19T04:35:49;100909.66;;;21.93;65.34
60656;BME280;46477;53.616;10.064;2022-08-19T04:38:16;100908.84;;;21.92;65.62
60656;BME280;46477;53.616;10.064;2022-08-19T04:40:44;100911.22;;;21.88;65.87
60656;BME280;46477;53.616;10.064;2022-08-19T04:43:28;100892.75;;;21.85;65.58
60656;BME280;46477;53.616;10.064;2022-08-19T04:45:54;100900.63;;;21.87;65.92
60656;BME280;46477;53.616;10.064;2022-08-19T04:48:20;100898.16;;;21.85;65.62
60656;BME280;46477;53.616;10.064;2022-08-19T04:50:51;100897.22;;;21.92;65.73
60656;BME280;46477;53.616;10.064;2022-08-19T04:53:22;100899.34;;;21.89;65.53
60656;BME280;46477;53.616;10.064;2022-08-19T04:55:47;100905.00;;;21.88;65.49
60656;BME280;46477;53.616;10.064;2022-08-19T04:58:12;100915.56;;;21.89;65.82
60656;BME280;46477;53.616;10.064;2022-08-19T05:00:39;100914.41;;;21.85;66.08
60656;BME280;46477;53.616;10.064;2022-08-19T05:03:05;100899.25;;;21.84;65.85
60656;BME280;46477;53.616;10.064;2022-08-19T05:05:30;100916.53;;;21.83;65.98
60656;BME280;46477;53.616;10.064;2022-08-19T05:07:56;100913.25;;;21.81;66.12
60656;BME280;46477;53.616;10.064;2022-08-19T05:10:21;100908.31;;;21.78;65.65
60656;BME280;46477;53.616;10.064;2022-08-19T05:12:46;100915.72;;;21.83;65.70
60656;BME280;46477;53.616;10.064;2022-08-19T05:15:12;100919.75;;;21.80;66.13
60656;BME280;46477;53.616;10.064;2022-08-19T05:17:37;100927.34;;;21.83;66.12
60656;BME280;46477;53.616;10.064;2022-08-19T05:20:04;100924.88;;;21.82;65.82
60656;BME280;46477;53.616;10.064;2022-08-19T05:22:48;100919.13;;;21.78;66.19
60656;BME280;46477;53.616;10.064;2022-08-19T05:25:18;100926.78;;;21.81;65.73
60656;BME280;46477;53.616;10.064;2022-08-19T05:27:44;100922.44;;;21.80;65.92
60656;BME280;46477;53.616;10.064;2022-08-19T05:30:11;100929.47;;;21.81;65.86
60656;BME280;46477;53.616;10.064;2022-08-19T05:32:37;100932.75;;;21.83;65.61
60656;BME280;46477;53.616;10.064;2022-08-19T05:35:04;100930.63;;;21.85;65.88
60656;BME280;46477;53.616;10.064;2022-08-19T05:37:30;100929.94;;;21.78;65.95
60656;BME280;46477;53.616;10.064;2022-08-19T05:39:55;100931.94;;;21.83;65.73
60656;BME280;46477;53.616;10.064;2022-08-19T05:42:21;100932.75;;;21.83;66.13
60656;BME280;46477;53.616;10.064;2022-08-19T05:44:48;100927.13;;;21.85;65.97
60656;BME280;46477;53.616;10.064;2022-08-19T05:47:15;100921.69;;;21.85;65.46
60656;BME280;46477;53.616;10.064;2022-08-19T05:49:41;100917.72;;;21.87;64.93
60656;BME280;46477;53.616;10.064;2022-08-19T05:52:10;100922.63;;;21.90;65.20
60656;BME280;46477;53.616;10.064;2022-08-19T05:54:37;100916.16;;;21.92;65.70
60656;BME280;46477;53.616;10.064;2022-08-19T05:57:05;100917.19;;;21.90;65.68
60656;BME280;46477;53.616;10.064;2022-08-19T05:59:31;100921.78;;;21.90;65.73
60656;BME280;46477;53.616;10.064;2022-08-19T06:01:56;100920.41;;;21.87;65.65
60656;BME280;46477;53.616;10.064;2022-08-19T06:04:22;100924.28;;;21.92;65.76
60656;BME280;46477;53.616;10.064;2022-08-19T06:06:50;100922.03;;;21.88;65.81
60656;BME280;46477;53.616;10.064;2022-08-19T06:09:17;100916.88;;;21.87;65.81
60656;BME280;46477;53.616;10.064;2022-08-19T06:11:51;100918.41;;;21.83;65.84
60656;BME280;46477;53.616;10.064;2022-08-19T06:14:26;100917.72;;;21.87;65.49
60656;BME280;46477;53.616;10.064;2022-08-19T06:16:52;100912.28;;;21.87;65.62
60656;BME280;46477;53.616;10.064;2022-08-19T06:19:20;100920.47;;;21.93;65.64
60656;BME280;46477;53.616;10.064;2022-08-19T06:21:48;100911.78;;;21.90;65.28
60656;BME280;46477;53.616;10.064;2022-08-19T06:24:18;100920.75;;;21.91;65.63
60656;BME280;46477;53.616;10.064;2022-08-19T06:26:46;100930.81;;;21.96;65.35
60656;BME280;46477;53.616;10.064;2022-08-19T06:29:14;100932.97;;;21.94;64.93
60656;BME280;46477;53.616;10.064;2022-08-19T06:31:43;100930.00;;;21.95;65.32
60656;BME280;46477;53.616;10.064;2022-08-19T06:34:09;100930.00;;;21.95;65.61
60656;BME280;46477;53.616;10.064;2022-08-19T06:36:40;100922.72;;;21.96;65.39
60656;BME280;46477;53.616;10.064;2022-08-19T06:39:11;100921.16;;;22.00;65.39
60656;BME280;46477;53.616;10.064;2022-08-19T06:41:39;100913.78;;;21.95;65.39
60656;BME280;46477;53.616;10.064;2022-08-19T06:44:05;100914.13;;;21.99;65.51
60656;BME280;46477;53.616;10.064;2022-08-19T06:46:31;100910.84;;;21.97;65.47
60656;BME280;46477;53.616;10.064;2022-08-19T06:48:57;100909.19;;;21.96;65.58
60656;BME280;46477;53.616;10.064;2022-08-19T06:51:23;100908.69;;;21.99;65.59
60656;BME280;46477;53.616;10.064;2022-08-19T06:53:51;100910.31;;;22.00;65.50
60656;BME280;46477;53.616;10.064;2022-08-19T06:56:24;100913.03;;;22.00;65.12
60656;BME280;46477;53.616;10.064;2022-08-19T06:58:55;100920.56;;;21.98;65.16
60656;BME280;46477;53.616;10.064;2022-08-19T07:01:20;100922.72;;;21.96;65.48
60656;BME280;46477;53.616;10.064;2022-08-19T07:03:46;100922.94;;;21.94;65.43
60656;BME280;46477;53.616;10.064;2022-08-19T07:06:16;100925.41;;;21.96;65.72
60656;BME280;46477;53.616;10.064;2022-08-19T07:08:44;100915.91;;;21.93;65.30
60656;BME280;46477;53.616;10.064;2022-08-19T07:11:12;100924.75;;;21.88;65.63
60656;BME280;46477;53.616;10.064;2022-08-19T07:13:39;100915.00;;;21.87;65.74
60656;BME280;46477;53.616;10.064;2022-08-19T07:16:06;100919.34;;;21.88;65.51
60656;BME280;46477;53.616;10.064;2022-08-19T07:18:32;100920.47;;;21.93;65.81
60656;BME280;46477;53.616;10.064;2022-08-19T07:21:05;100922.38;;;21.92;65.62
60656;BME280;46477;53.616;10.064;2022-08-19T07:23:32;100914.72;;;21.89;65.71
60656;BME280;46477;53.616;10.064;2022-08-19T07:25:58;100911.44;;;21.87;65.69
60656;BME280;46477;53.616;10.064;2022-08-19T07:28:28;100921.00;;;21.89;65.73
60656;BME280;46477;53.616;10.064;2022-08-19T07:30:54;100925.50;;;21.84;65.85
60656;BME280;46477;53.616;10.064;2022-08-19T07:33:19;100921.69;;;21.85;65.85
60656;BME280;46477;53.616;10.064;2022-08-19T07:35:45;100941.13;;;21.82;65.91
60656;BME280;46477;53.616;10.064;2022-08-19T07:38:11;100931.59;;;21.79;65.89
60656;BME280;46477;53.616;10.064;2022-08-19T07:40:36;100941.97;;;21.82;65.91
60656;BME280;46477;53.616;10.064;2022-08-19T07:43:02;100948.84;;;21.90;65.94
60656;BME280;46477;53.616;10.064;2022-08-19T07:45:27;100948.38;;;21.93;65.88
60656;BME280;46477;53.616;10.064;2022-08-19T07:47:54;100946.38;;;21.88;65.93
60656;BME280;46477;53.616;10.064;2022-08-19T07:50:20;100944.16;;;21.85;65.75
60656;BME280;46477;53.616;10.064;2022-08-19T07:52:48;100957.22;;;21.88;66.06
60656;BME280;46477;53.616;10.064;2022-08-19T07:55:16;100953.22;;;21.91;65.92
60656;BME280;46477;53.616;10.064;2022-08-19T07:57:41;100950.50;;;21.91;65.88
60656;BME280;46477;53.616;10.064;2022-08-19T08:00:10;100955.09;;;21.90;66.07
60656;BME280;46477;53.616;10.064;2022-08-19T08:02:36;100966.75;;;21.91;66.20
60656;BME280;46477;53.616;10.064;2022-08-19T08:05:02;100975.56;;;21.86;66.26
60656;BME280;46477;53.616;10.064;2022-08-19T08:07:57;100974.03;;;21.90;65.99
60656;BME280;46477;53.616;10.064;2022-08-19T08:10:41;100975.19;;;21.95;66.01
60656;BME280;46477;53.616;10.064;2022-08-19T08:13:07;100982.97;;;21.91;66.09
60656;BME280;46477;53.616;10.064;2022-08-19T08:15:32;100984.03;;;21.90;65.97
60656;BME280;46477;53.616;10.064;2022-08-19T08:17:57;100979.59;;;21.84;66.20
60656;BME280;46477;53.616;10.064;2022-08-19T08:20:23;100981.97;;;21.80;66.57
60656;BME280;46477;53.616;10.064;2022-08-19T08:22:49;100978.19;;;21.81;66.48
60656;BME280;46477;53.616;10.064;2022-08-19T08:25:34;100986.06;;;21.83;66.48
60656;BME280;46477;53.616;10.064;2022-08-19T08:28:01;100984.06;;;21.78;66.70
60656;BME280;46477;53.616;10.064;2022-08-19T08:30:28;100986.19;;;21.76;66.86
60656;BME280;46477;53.616;10.064;2022-08-19T08:32:54;100984.41;;;21.82;66.82
60656;BME280;46477;53.616;10.064;2022-08-19T08:35:21;100997.22;;;21.86;66.27
60656;BME280;46477;53.616;10.064;2022-08-19T08:37:49;100990.84;;;21.93;66.32
60656;BME280;46477;53.616;10.064;2022-08-19T08:43:11;100986.72;;;22.02;66.37
60656;BME280;46477;53.616;10.064;2022-08-19T08:45:46;100992.69;;;22.04;66.09
60656;BME280;46477;53.616;10.064;2022-08-19T08:48:19;100994.09;;;22.06;66.01
60656;BME280;46477;53.616;10.064;2022-08-19T08:50:46;100988.44;;;22.08;65.62
60656;BME280;46477;53.616;10.064;2022-08-19T08:53:17;100995.50;;;22.09;65.62
60656;BME280;46477;53.616;10.064;2022-08-19T08:55:42;100994.66;;;22.08;65.94
60656;BME280;46477;53.616;10.064;2022-08-19T08:58:14;100992.19;;;22.07;66.00
60656;BME280;46477;53.616;10.064;2022-08-19T09:00:44;100994.72;;;21.97;66.49
60656;BME280;46477;53.616;10.064;2022-08-19T09:03:18;100994.72;;;21.97;66.36
60656;BME280;46477;53.616;10.064;2022-08-19T09:06:03;100998.59;;;22.01;66.43
60656;BME280;46477;53.616;10.064;2022-08-19T09:08:46;101001.28;;;22.01;66.69
60656;BME280;46477;53.616;10.064;2022-08-19T09:11:19;100996.22;;;22.04;66.38
60656;BME280;46477;53.616;10.064;2022-08-19T09:14:26;100994.91;;;22.07;66.42
60656;BME280;46477;53.616;10.064;2022-08-19T09:16:57;100992.78;;;22.09;66.45
60656;BME280;46477;53.616;10.064;2022-08-19T09:19:22;101000.41;;;22.12;66.25
60656;BME280;46477;53.616;10.064;2022-08-19T09:21:48;100998.78;;;22.11;66.36
60656;BME280;46477;53.616;10.064;2022-08-19T09:24:14;101000.41;;;22.12;66.12
60656;BME280;46477;53.616;10.064;2022-08-19T09:26:40;101001.03;;;22.14;65.96
60656;BME280;46477;53.616;10.064;2022-08-19T09:29:05;100997.97;;;22.11;66.08
60656;BME280;46477;53.616;10.064;2022-08-19T09:31:31;101007.38;;;22.08;66.03
60656;BME280;46477;53.616;10.064;2022-08-19T09:33:58;101005.72;;;22.07;65.85
60656;BME280;46477;53.616;10.064;2022-08-19T09:36:25;101006.81;;;22.06;66.45
60656;BME280;46477;53.616;10.064;2022-08-19T09:38:52;100990.91;;;22.09;66.34
60656;BME280;46477;53.616;10.064;2022-08-19T09:41:20;101001.25;;;22.13;64.90
60656;BME280;46477;53.616;10.064;2022-08-19T09:43:47;100992.56;;;22.11;66.08
60656;BME280;46477;53.616;10.064;2022-08-19T09:46:17;101000.41;;;22.12;66.36
60656;BME280;46477;53.616;10.064;2022-08-19T09:48:43;100992.06;;;22.14;66.54
60656;BME280;46477;53.616;10.064;2022-08-19T09:51:14;100995.66;;;22.19;66.26
60656;BME280;46477;53.616;10.064;2022-08-19T09:53:46;101001.69;;;22.21;66.06
60656;BME280;46477;53.616;10.064;2022-08-19T09:56:12;100990.88;;;22.21;66.19
60656;BME280;46477;53.616;10.064;2022-08-19T09:58:39;100993.31;;;22.23;66.38
60656;BME280;46477;53.616;10.064;2022-08-19T10:01:06;100992.50;;;22.22;65.95
60656;BME280;46477;53.616;10.064;2022-08-19T10:03:33;100994.63;;;22.20;65.96
60656;BME280;46477;53.616;10.064;2022-08-19T10:06:01;100986.63;;;22.14;66.15
60656;BME280;46477;53.616;10.064;2022-08-19T10:08:34;100988.44;;;22.08;66.19
60656;BME280;46477;53.616;10.064;2022-08-19T10:11:00;100985.63;;;22.03;66.27
60656;BME280;46477;53.616;10.064;2022-08-19T10:13:28;100992.69;;;22.04;66.40
60656;BME280;46477;53.616;10.064;2022-08-19T10:15:55;100992.25;;;21.95;66.69
60656;BME280;46477;53.616;10.064;2022-08-19T10:18:23;101005.88;;;22.00;66.74
60656;BME280;46477;53.616;10.064;2022-08-19T10:20:50;101000.25;;;22.02;66.66
60656;BME280;46477;53.616;10.064;2022-08-19T10:23:18;101005.66;;;22.02;66.93
60656;BME280;46477;53.616;10.064;2022-08-19T10:25:44;101010.31;;;22.06;66.29
60656;BME280;46477;53.616;10.064;2022-08-19T10:28:09;101000.31;;;22.07;66.59
60656;BME280;46477;53.616;10.064;2022-08-19T10:30:38;100998.78;;;22.11;66.51
60656;BME280;46477;53.616;10.064;2022-08-19T10:33:05;100994.66;;;22.08;66.45
60656;BME280;46477;53.616;10.064;2022-08-19T10:35:30;100993.94;;;22.13;66.64
60656;BME280;46477;53.616;10.064;2022-08-19T10:37:56;100994.84;;;22.19;66.64
60656;BME280;46477;53.616;10.064;2022-08-19T10:40:27;101003.56;;;22.21;66.52
60656;BME280;46477;53.616;10.064;2022-08-19T10:42:55;100991.44;;;22.23;66.16
60656;BME280;46477;53.616;10.064;2022-08-19T10:45:21;100995.31;;;22.27;65.98
60656;BME280;46477;53.616;10.064;2022-08-19T10:47:48;100999.69;;;22.29;66.08
60656;BME280;46477;53.616;10.064;2022-08-19T10:50:14;101001.06;;;22.31;65.88
60656;BME280;46477;53.616;10.064;2022-08-19T10:53:03;100990.00;;;22.33;66.14
60656;BME280;46477;53.616;10.064;2022-08-19T10:55:29;100997.88;;;22.34;66.07
60656;BME280;46477;53.616;10.064;2022-08-19T10:58:16;100991.06;;;22.32;65.85
60656;BME280;46477;53.616;10.064;2022-08-19T11:00:42;100992.63;;;22.27;66.19
60656;BME280;46477;53.616;10.064;2022-08-19T11:03:08;100998.66;;;22.18;65.99
60656;BME280;46477;53.616;10.064;2022-08-19T11:05:34;100991.34;;;22.18;66.15
60656;BME280;46477;53.616;10.064;2022-08-19T11:08:00;100989.09;;;22.15;66.44
60656;BME280;46477;53.616;10.064;2022-08-19T11:10:25;100992.38;;;22.17;66.37
60656;BME280;46477;53.616;10.064;2022-08-19T11:12:51;100991.56;;;22.17;66.43
60656;BME280;46477;53.616;10.064;2022-08-19T11:15:21;100989.09;;;22.15;66.51
60656;BME280;46477;53.616;10.064;2022-08-19T11:17:46;100995.25;;;22.11;66.58
60656;BME280;46477;53.616;10.064;2022-08-19T11:20:13;100995.50;;;22.09;66.50
60656;BME280;46477;53.616;10.064;2022-08-19T11:22:39;100998.69;;;22.06;66.47
60656;BME280;46477;53.616;10.064;2022-08-19T11:25:06;100989.47;;;22.07;66.59
60656;BME280;46477;53.616;10.064;2022-08-19T11:27:32;100999.34;;;22.13;66.77
60656;BME280;46477;53.616;10.064;2022-08-19T11:29:59;100995.34;;;22.16;66.25
60656;BME280;46477;53.616;10.064;2022-08-19T11:32:25;101003.78;;;22.19;66.26
60656;BME280;46477;53.616;10.064;2022-08-19T11:34:51;100999.78;;;22.22;65.93
60656;BME280;46477;53.616;10.064;2022-08-19T11:37:17;100992.81;;;22.26;66.02
60656;BME280;46477;53.616;10.064;2022-08-19T11:39:42;100988.34;;;22.32;66.15
60656;BME280;46477;53.616;10.064;2022-08-19T11:42:07;100984.44;;;22.39;66.00
60656;BME280;46477;53.616;10.064;2022-08-19T11:44:52;100977.81;;;22.47;65.99
60656;BME280;46477;53.616;10.064;2022-08-19T11:47:17;100983.78;;;22.49;65.88
60656;BME280;46477;53.616;10.064;2022-08-19T11:49:43;100984.13;;;22.53;65.75
60656;BME280;46477;53.616;10.064;2022-08-19T11:52:08;100979.03;;;22.56;65.03
60656;BME280;46477;53.616;10.064;2022-08-19T11:54:34;100972.56;;;22.57;65.03
60656;BME280;46477;53.616;10.064;2022-08-19T11:57:02;100977.47;;;22.60;65.02
60656;BME280;46477;53.616;10.064;2022-08-19T11:59:28;100976.25;;;22.68;65.04
60656;BME280;46477;53.616;10.064;2022-08-19T12:01:54;100980.34;;;22.71;64.05
60656;BME280;46477;53.616;10.064;2022-08-19T12:04:21;100983.63;;;22.73;64.83
60656;BME280;46477;53.616;10.064;2022-08-19T12:06:46;100982.34;;;22.75;64.67
60656;BME280;46477;53.616;10.064;2022-08-19T12:09:12;100981.25;;;22.76;64.16
60656;BME280;46477;53.616;10.064;2022-08-19T12:11:39;100983.72;;;22.78;64.40
60656;BME280;46477;53.616;10.064;2022-08-19T12:14:09;100985.84;;;22.76;64.73
60656;BME280;46477;53.616;10.064;2022-08-19T12:16:35;100990.22;;;22.77;64.86
60656;BME280;46477;53.616;10.064;2022-08-19T12:19:01;100987.25;;;22.78;65.02
60656;BME280;46477;53.616;10.064;2022-08-19T12:21:30;100982.66;;;22.79;64.37
60656;BME280;46477;53.616;10.064;2022-08-19T12:23:57;100977.81;;;22.81;64.51
60656;BME280;46477;53.616;10.064;2022-08-19T12:26:25;100991.34;;;22.81;64.46
60656;BME280;46477;53.616;10.064;2022-08-19T12:28:51;100983.00;;;22.82;64.64
60656;BME280;46477;53.616;10.064;2022-08-19T12:31:17;100979.19;;;22.83;64.68
60656;BME280;46477;53.616;10.064;2022-08-19T12:33:43;100979.53;;;22.70;64.68
60656;BME280;46477;53.616;10.064;2022-08-19T12:36:10;100983.72;;;22.78;64.68
60656;BME280;46477;53.616;10.064;2022-08-19T12:38:37;100980.75;;;22.79;64.83
60656;BME280;46477;53.616;10.064;2022-08-19T12:41:04;100977.91;;;22.86;64.77
60656;BME280;46477;53.616;10.064;2022-08-19T12:43:35;100971.22;;;22.94;64.12
60656;BME280;46477;53.616;10.064;2022-08-19T12:46:02;100969.66;;;22.98;64.40